Time;durP1;ratioP1;P1;durP2;ratioP2;P2;SDS_P1;SDS_P2;PMS_P1;PMS_P2;Temp;Humidity;BMP_temperature;BMP_pressure;BME280_temperature;BME280_humidity;BME280_pressure;Samples;Min_cycle;Max_cycle;Signal;HPM_P1;HPM_P2
2023/01/03 00:01:23;;;;;;;17.52;13.75;;;4.60;99.90;;;;;;5031278;28;20222;-91
2023/01/03 00:03:54;;;;;;;25.50;12.88;;;4.50;99.90;;;;;;5031850;28;20309;-91
2023/01/03 00:06:24;;;;;;;21.02;14.55;;;4.50;99.90;;;;;;5030966;28;20291;-92
2023/01/03 00:08:54;;;;;;;17.80;11.93;;;4.40;99.90;;;;;;5031090;28;20213;-92
2023/01/03 00:12:22;;;;;;;15.15;13.65;;;4.40;99.90;;;;;;5031051;28;20217;-92
2023/01/03 00:14:14;;;;;;;17.42;13.70;;;4.40;99.90;;;;;;5032139;28;20225;-92
2023/01/03 00:16:44;;;;;;;24.08;15.23;;;4.40;99.90;;;;;;5031591;28;20229;-92
2023/01/03 00:19:14;;;;;;;16.30;13.18;;;4.40;99.90;;;;;;5031917;28;20218;-92
2023/01/03 00:21:43;;;;;;;18.77;13.80;;;4.40;99.90;;;;;;5031078;28;20230;-91
2023/01/03 00:24:11;;;;;;;14.05;11.85;;;4.30;99.90;;;;;;5031923;28;20333;-92
2023/01/03 00:26:43;;;;;;;22.70;14.50;;;4.30;99.90;;;;;;5031642;28;20223;-92
2023/01/03 00:29:12;;;;;;;15.00;13.15;;;4.30;99.90;;;;;;5031894;28;20293;-92
2023/01/03 00:31:44;;;;;;;15.75;14.05;;;4.30;99.90;;;;;;5031868;28;20213;-91
2023/01/03 00:34:13;;;;;;;16.20;13.73;;;4.30;99.90;;;;;;5031519;28;20220;-92
2023/01/03 00:36:42;;;;;;;14.02;12.55;;;4.40;99.90;;;;;;5031132;28;20246;-92
2023/01/03 00:39:11;;;;;;;16.42;14.30;;;4.40;99.90;;;;;;5033041;28;20216;-92
2023/01/03 00:41:40;;;;;;;17.55;14.85;;;4.30;99.90;;;;;;5031414;28;20294;-91
2023/01/03 00:44:09;;;;;;;17.95;15.23;;;4.30;99.90;;;;;;5030987;28;20217;-91
2023/01/03 00:46:37;;;;;;;15.60;14.00;;;4.30;99.90;;;;;;5031297;28;20278;-92
2023/01/03 00:49:06;;;;;;;17.75;14.23;;;4.30;99.90;;;;;;5029269;28;20290;-92
2023/01/03 00:51:44;;;;;;;24.45;16.02;;;4.30;99.90;;;;;;5031329;28;20260;-85
2023/01/03 00:54:14;;;;;;;16.75;14.00;;;4.30;99.90;;;;;;5031646;28;20292;-85
2023/01/03 00:56:44;;;;;;;14.88;13.38;;;4.30;99.90;;;;;;5029801;28;20229;-86
2023/01/03 00:59:14;;;;;;;15.23;13.60;;;4.30;99.90;;;;;;5031038;28;20233;-85
2023/01/03 01:01:44;;;;;;;14.25;12.80;;;4.30;99.90;;;;;;5030916;28;20222;-92
2023/01/03 01:04:17;;;;;;;18.45;15.40;;;4.20;99.90;;;;;;5030840;28;20210;-92
2023/01/03 01:06:49;;;;;;;19.88;15.90;;;4.30;99.90;;;;;;5028955;28;20225;-91
2023/01/03 01:09:19;;;;;;;17.55;15.07;;;4.30;99.90;;;;;;5030379;28;20207;-92
2023/01/03 01:11:51;;;;;;;26.65;15.02;;;4.30;99.90;;;;;;5031255;28;20289;-92
2023/01/03 01:14:22;;;;;;;20.80;16.10;;;4.20;99.90;;;;;;5031416;28;20214;-86
2023/01/03 01:16:52;;;;;;;15.32;13.38;;;4.20;99.90;;;;;;5033175;28;20289;-91
2023/01/03 01:19:23;;;;;;;16.55;14.20;;;4.20;99.90;;;;;;5033547;28;20210;-92
2023/01/03 01:21:52;;;;;;;14.93;13.23;;;4.20;99.90;;;;;;5033427;28;20222;-91
2023/01/03 01:24:21;;;;;;;20.23;15.02;;;4.20;99.90;;;;;;5033786;28;20221;-91
2023/01/03 01:26:50;;;;;;;21.90;15.48;;;4.10;99.90;;;;;;5033227;28;20222;-92
2023/01/03 01:29:19;;;;;;;14.40;13.00;;;4.10;99.90;;;;;;5033031;28;20217;-91
2023/01/03 01:31:48;;;;;;;19.80;14.48;;;4.10;99.90;;;;;;5033258;28;20198;-91
2023/01/03 01:34:17;;;;;;;16.10;14.40;;;4.20;99.90;;;;;;5032591;28;20209;-91
2023/01/03 01:36:46;;;;;;;19.98;15.15;;;4.10;99.90;;;;;;5032935;28;20322;-92
2023/01/03 01:39:19;;;;;;;16.92;14.90;;;4.10;99.90;;;;;;5033066;28;20209;-91
2023/01/03 01:44:45;;;;;;;17.67;14.13;;;4.10;99.90;;;;;;5033132;28;20208;-92
2023/01/03 01:47:22;;;;;;;20.17;15.70;;;4.10;99.90;;;;;;5033423;28;20209;-92
2023/01/03 01:49:56;;;;;;;19.55;16.33;;;4.10;99.90;;;;;;5033072;28;20210;-92
2023/01/03 01:52:25;;;;;;;18.15;15.85;;;4.20;99.90;;;;;;5033128;28;20205;-91
2023/01/03 01:54:56;;;;;;;14.75;13.32;;;4.10;99.90;;;;;;5032594;28;20232;-91
2023/01/03 01:57:26;;;;;;;22.65;16.77;;;4.20;99.90;;;;;;5032833;28;20206;-91
2023/01/03 01:59:54;;;;;;;23.10;16.92;;;4.20;99.90;;;;;;5033118;28;20211;-91
2023/01/03 02:02:23;;;;;;;23.13;18.10;;;4.20;99.90;;;;;;5032838;28;20287;-91
2023/01/03 02:04:55;;;;;;;25.48;16.83;;;4.30;99.90;;;;;;5032856;28;20238;-91
2023/01/03 02:07:24;;;;;;;33.58;17.90;;;4.30;99.90;;;;;;5033325;28;20194;-91
2023/01/03 02:09:57;;;;;;;25.20;16.10;;;4.30;99.90;;;;;;5032856;28;20210;-92
2023/01/03 02:15:52;;;;;;;22.88;17.35;;;4.30;99.90;;;;;;4971777;28;20224;-91
2023/01/03 02:18:33;;;;;;;20.75;16.33;;;4.30;99.90;;;;;;5025471;28;20206;-91
2023/01/03 02:21:42;;;;;;;25.85;17.58;;;4.30;99.90;;;;;;5032177;28;20218;-90
2023/01/03 02:24:38;;;;;;;24.52;17.38;;;4.30;99.90;;;;;;5032797;28;20222;-90
2023/01/03 02:27:52;;;;;;;27.73;16.73;;;4.40;99.90;;;;;;5032965;28;20213;-90
2023/01/03 02:30:35;;;;;;;26.58;17.23;;;4.40;99.90;;;;;;5032841;28;20224;-90
2023/01/03 02:33:17;;;;;;;29.42;16.27;;;4.30;99.90;;;;;;5033019;28;20321;-90
2023/01/03 02:35:57;;;;;;;29.75;15.82;;;4.40;99.90;;;;;;5032338;28;20238;-90
2023/01/03 02:38:35;;;;;;;18.67;16.42;;;4.30;99.90;;;;;;5032518;28;20210;-89
2023/01/03 02:41:08;;;;;;;20.35;15.98;;;4.30;99.90;;;;;;5016315;28;20229;-90
2023/01/03 02:43:41;;;;;;;22.92;16.45;;;4.20;99.90;;;;;;5012084;28;20297;-90
2023/01/03 02:46:16;;;;;;;33.78;15.68;;;4.20;99.90;;;;;;5014107;28;20226;-90
2023/01/03 02:48:52;;;;;;;24.48;15.48;;;4.20;99.90;;;;;;5018336;28;20213;-94
2023/01/03 02:51:25;;;;;;;18.90;13.73;;;4.20;99.90;;;;;;5035267;28;20261;-90
2023/01/03 02:53:54;;;;;;;17.52;13.93;;;4.10;99.90;;;;;;5022577;28;20195;-90
2023/01/03 02:56:27;;;;;;;17.15;14.57;;;4.10;99.90;;;;;;5036301;28;20229;-90
2023/01/03 02:58:59;;;;;;;17.13;14.63;;;4.00;99.90;;;;;;5033635;28;20227;-90
2023/01/03 03:01:31;;;;;;;17.33;15.50;;;4.00;99.90;;;;;;5035333;28;20215;-92
2023/01/03 03:04:02;;;;;;;19.17;15.30;;;4.00;99.90;;;;;;5035634;28;20202;-91
2023/01/03 03:06:36;;;;;;;26.23;15.40;;;4.00;99.90;;;;;;5035805;28;20218;-85
2023/01/03 03:09:05;;;;;;;19.83;16.30;;;4.00;99.90;;;;;;5035946;28;20210;-85
2023/01/03 03:14:25;;;;;;;18.67;15.90;;;4.10;99.90;;;;;;5015207;28;20245;-85
2023/01/03 03:17:00;;;;;;;17.83;14.63;;;4.10;99.90;;;;;;5015457;28;20233;-85
2023/01/03 03:25:18;;;;;;;15.02;13.43;;;4.20;99.90;;;;;;5015093;28;20302;-85
2023/01/03 03:30:41;;;;;;;16.40;14.52;;;4.30;99.90;;;;;;5015163;28;20206;-90
2023/01/03 03:33:14;;;;;;;18.60;14.02;;;4.30;99.90;;;;;;5015097;28;20200;-91
2023/01/03 03:35:46;;;;;;;15.20;13.40;;;4.30;99.90;;;;;;5014980;28;20275;-91
2023/01/03 03:38:21;;;;;;;16.25;14.15;;;4.40;99.90;;;;;;5014391;28;20238;-90
2023/01/03 03:46:44;;;;;;;14.02;12.63;;;4.40;99.90;;;;;;5014934;28;20227;-92
2023/01/03 03:49:39;;;;;;;16.83;14.02;;;4.50;99.90;;;;;;5022945;28;20205;-93
2023/01/03 03:52:12;;;;;;;17.83;14.50;;;4.50;99.90;;;;;;5034701;28;20205;-93
2023/01/03 03:54:45;;;;;;;21.02;14.68;;;4.50;99.90;;;;;;5034287;28;20214;-85
2023/01/03 03:57:17;;;;;;;16.67;13.82;;;4.50;99.90;;;;;;5032850;28;20214;-85
2023/01/03 03:59:51;;;;;;;17.33;14.25;;;4.60;99.90;;;;;;5034197;28;20205;-85
2023/01/03 04:02:22;;;;;;;14.95;12.60;;;4.60;99.90;;;;;;5033989;28;20226;-84
2023/01/03 04:04:55;;;;;;;19.35;15.43;;;4.60;99.90;;;;;;5033898;28;20210;-85
2023/01/03 04:07:24;;;;;;;27.42;16.60;;;4.70;99.90;;;;;;5033811;28;20629;-85
2023/01/03 04:09:52;;;;;;;22.42;16.95;;;4.70;99.90;;;;;;5034054;28;20207;-84
2023/01/03 04:12:20;;;;;;;25.08;19.90;;;4.70;99.90;;;;;;5033996;28;20203;-85
2023/01/03 04:14:48;;;;;;;27.02;20.45;;;4.80;99.90;;;;;;5034151;28;20221;-84
2023/01/03 04:17:17;;;;;;;37.72;20.67;;;4.80;99.90;;;;;;5033644;28;20233;-85
2023/01/03 04:19:45;;;;;;;28.80;22.20;;;4.80;99.90;;;;;;5033855;28;20241;-84
2023/01/03 04:22:15;;;;;;;22.67;20.15;;;4.90;99.90;;;;;;5033676;28;20225;-84
2023/01/03 04:24:43;;;;;;;27.05;20.75;;;4.90;99.90;;;;;;5033613;28;20212;-84
2023/01/03 04:27:11;;;;;;;27.05;20.05;;;4.90;99.90;;;;;;5033581;28;20206;-84
2023/01/03 04:29:40;;;;;;;28.48;20.83;;;4.90;99.90;;;;;;5033802;28;20214;-85
2023/01/03 04:32:08;;;;;;;26.75;21.02;;;5.00;99.90;;;;;;5033129;28;20206;-85
2023/01/03 04:34:37;;;;;;;26.50;19.98;;;5.00;99.90;;;;;;5033615;28;20215;-85
2023/01/03 04:37:05;;;;;;;24.83;19.55;;;5.00;99.90;;;;;;5033308;28;20214;-85
2023/01/03 04:39:35;;;;;;;25.20;21.17;;;5.00;99.90;;;;;;5033390;28;20210;-85
2023/01/03 04:44:00;;;;;;;24.38;19.73;;;5.00;99.90;;;;;;5033382;28;20211;-85
2023/01/03 04:44:51;;;;;;;20.75;18.40;;;5.00;99.90;;;;;;5032819;28;20236;-84
2023/01/03 04:47:19;;;;;;;32.40;21.05;;;5.00;99.90;;;;;;5032862;28;20206;-85
2023/01/03 04:49:47;;;;;;;27.38;19.55;;;5.00;99.90;;;;;;5021624;28;20199;-85
2023/01/03 04:52:17;;;;;;;23.85;19.85;;;5.00;99.90;;;;;;5013266;28;20207;-85
2023/01/03 04:54:46;;;;;;;24.42;17.90;;;5.00;99.90;;;;;;5013695;28;20217;-85
2023/01/03 04:57:15;;;;;;;22.38;15.75;;;5.00;99.90;;;;;;5012921;28;20209;-85
2023/01/03 04:59:43;;;;;;;16.85;14.10;;;4.90;99.90;;;;;;5013390;28;20222;-84
2023/01/03 05:02:11;;;;;;;17.60;14.73;;;4.80;99.90;;;;;;5013203;28;20294;-85
2023/01/03 05:04:40;;;;;;;20.02;14.63;;;4.80;99.90;;;;;;5013334;28;20207;-85
2023/01/03 05:07:08;;;;;;;15.88;13.52;;;4.70;99.90;;;;;;5013770;28;20212;-85
2023/01/03 05:09:36;;;;;;;16.58;13.93;;;4.80;99.90;;;;;;5012938;28;20215;-84
2023/01/03 05:12:06;;;;;;;21.77;16.50;;;4.80;99.90;;;;;;5013261;28;20207;-85
2023/01/03 05:14:36;;;;;;;24.85;17.67;;;4.80;99.90;;;;;;5012962;28;20218;-85
2023/01/03 05:17:04;;;;;;;18.42;16.02;;;4.80;99.90;;;;;;5012756;28;20349;-85
2023/01/03 05:19:32;;;;;;;17.10;15.13;;;4.70;99.90;;;;;;5013231;28;20242;-85
2023/01/03 05:27:33;;;;;;;18.30;14.82;;;4.70;99.90;;;;;;5013388;28;20207;-92
2023/01/03 05:30:02;;;;;;;15.07;13.45;;;4.70;99.90;;;;;;5012743;28;20211;-87
2023/01/03 05:32:30;;;;;;;20.02;14.43;;;4.70;99.90;;;;;;5012280;28;20207;-89
2023/01/03 05:34:58;;;;;;;15.63;13.90;;;4.60;99.90;;;;;;5028256;28;20230;-89
2023/01/03 05:37:26;;;;;;;14.20;12.20;;;4.60;99.90;;;;;;5032138;28;20278;-89
2023/01/03 05:39:55;;;;;;;15.88;14.20;;;4.60;99.90;;;;;;5032072;28;20285;-89
2023/01/03 05:42:23;;;;;;;17.35;14.93;;;4.60;99.90;;;;;;5032337;28;20214;-89
2023/01/03 05:44:53;;;;;;;17.67;15.57;;;4.60;99.90;;;;;;5032374;28;20207;-89
2023/01/03 05:47:21;;;;;;;16.35;13.95;;;4.50;99.90;;;;;;5032230;28;20212;-88
2023/01/03 05:49:50;;;;;;;18.25;15.13;;;4.50;99.90;;;;;;5020277;28;20199;-89
2023/01/03 05:52:19;;;;;;;17.52;14.32;;;4.50;99.90;;;;;;5012636;28;20209;-89
2023/01/03 05:54:47;;;;;;;24.95;16.02;;;4.50;99.90;;;;;;5012601;28;20290;-89
2023/01/03 05:57:15;;;;;;;20.65;16.15;;;4.50;99.90;;;;;;5012360;28;20207;-89
2023/01/03 05:59:44;;;;;;;18.60;14.98;;;4.60;99.90;;;;;;5012417;28;20217;-89
2023/01/03 06:02:14;;;;;;;20.27;15.27;;;4.50;99.90;;;;;;5012675;28;20211;-90
2023/01/03 06:04:42;;;;;;;20.75;16.58;;;4.50;99.90;;;;;;5012314;28;20227;-89
2023/01/03 06:07:10;;;;;;;17.02;15.10;;;4.50;99.90;;;;;;5011998;28;20210;-89
2023/01/03 06:09:39;;;;;;;20.30;15.80;;;4.60;99.90;;;;;;5012341;28;20223;-89
2023/01/03 06:12:07;;;;;;;16.50;14.73;;;4.60;99.90;;;;;;5012190;28;20215;-89
2023/01/03 06:14:35;;;;;;;18.48;15.18;;;4.60;99.90;;;;;;5012757;28;20294;-89
2023/01/03 06:19:51;;;;;;;20.02;16.42;;;4.60;99.90;;;;;;5012790;28;20210;-88
2023/01/03 06:22:19;;;;;;;20.98;16.17;;;4.60;99.90;;;;;;5015499;28;20210;-89
2023/01/03 06:24:47;;;;;;;19.67;16.20;;;4.60;99.90;;;;;;5015300;28;20229;-89
2023/01/03 06:27:15;;;;;;;18.65;16.55;;;4.60;99.90;;;;;;5015597;28;20207;-89
2023/01/03 06:29:44;;;;;;;23.10;17.70;;;4.60;99.90;;;;;;5016023;28;20298;-89
2023/01/03 06:32:12;;;;;;;18.83;15.30;;;4.60;99.90;;;;;;5015454;28;20203;-88
2023/01/03 06:34:40;;;;;;;20.00;16.55;;;4.60;99.90;;;;;;5028263;28;20195;-90
2023/01/03 06:37:10;;;;;;;20.63;17.10;;;4.60;99.90;;;;;;5035111;28;20221;-89
2023/01/03 06:39:38;;;;;;;20.50;15.18;;;4.60;99.90;;;;;;5035431;28;20213;-90
2023/01/03 06:53:10;;;;;;;21.38;14.68;;;4.60;99.90;;;;;;5034107;28;20230;-88
2023/01/03 06:53:14;;;;;;;18.13;14.90;;;4.60;99.90;;;;;;5035488;28;20202;-88
2023/01/03 06:55:44;;;;;;;20.13;12.48;;;4.70;99.90;;;;;;5035224;28;20236;-88
2023/01/03 06:58:13;;;;;;;13.50;12.13;;;4.80;99.90;;;;;;5035277;28;20206;-88
2023/01/03 07:00:43;;;;;;;16.27;12.38;;;4.90;99.90;;;;;;5034966;28;20206;-88
2023/01/03 07:03:11;;;;;;;20.23;12.13;;;5.00;99.90;;;;;;5035125;28;20215;-89
2023/01/03 07:05:40;;;;;;;14.50;12.52;;;5.20;99.90;;;;;;5035008;28;20227;-89
2023/01/03 07:08:08;;;;;;;10.27;9.07;;;5.40;99.90;;;;;;5034959;28;20211;-90
2023/01/03 07:10:38;;;;;;;11.60;10.43;;;5.60;99.90;;;;;;5035041;28;20206;-88
2023/01/03 07:15:51;;;;;;;11.10;9.60;;;5.80;99.90;;;;;;5035361;28;20308;-89
2023/01/03 07:18:20;;;;;;;9.93;8.73;;;5.90;99.90;;;;;;5034754;28;20207;-89
2023/01/03 07:20:48;;;;;;;8.88;8.05;;;6.00;99.90;;;;;;5034770;28;20210;-88
2023/01/03 07:23:16;;;;;;;9.20;8.25;;;6.20;99.90;;;;;;5034887;28;20285;-89
2023/01/03 07:25:46;;;;;;;13.02;8.23;;;6.30;99.90;;;;;;5034772;28;20240;-89
2023/01/03 07:28:15;;;;;;;12.95;7.28;;;6.50;99.90;;;;;;5031754;28;20202;-90
2023/01/03 07:30:45;;;;;;;8.18;6.65;;;6.60;99.90;;;;;;5025122;28;20194;-90
2023/01/03 07:33:15;;;;;;;5.63;5.03;;;6.80;99.90;;;;;;5026529;28;20252;-86
2023/01/03 07:35:43;;;;;;;6.05;5.50;;;7.10;99.90;;;;;;5034098;28;20229;-90
2023/01/03 07:38:13;;;;;;;5.70;5.10;;;7.30;99.90;;;;;;5034714;28;20210;-89
2023/01/03 07:40:41;;;;;;;5.03;4.53;;;7.50;99.90;;;;;;5034191;28;20209;-89
2023/01/03 07:45:57;;;;;;;4.70;4.30;;;7.90;99.90;;;;;;5025282;28;20225;-89
2023/01/03 07:48:25;;;;;;;5.07;4.60;;;8.10;99.90;;;;;;5033281;28;20218;-89
2023/01/03 07:50:57;;;;;;;5.20;4.70;;;8.20;99.90;;;;;;5032509;28;20206;-89
2023/01/03 07:53:26;;;;;;;4.60;4.20;;;8.20;99.90;;;;;;5034521;28;20226;-89
2023/01/03 07:56:00;;;;;;;4.63;4.22;;;8.20;99.90;;;;;;5034048;28;20234;-89
2023/01/03 07:58:36;;;;;;;5.55;4.13;;;8.30;99.90;;;;;;5033745;28;20225;-89
2023/01/03 08:01:06;;;;;;;5.30;4.07;;;8.30;99.90;;;;;;5034106;28;20203;-89
2023/01/03 08:03:36;;;;;;;4.68;3.75;;;8.30;99.90;;;;;;5033447;28;20210;-89
2023/01/03 08:06:06;;;;;;;6.15;4.32;;;8.30;99.90;;;;;;5033632;28;20222;-89
2023/01/03 08:08:34;;;;;;;4.72;4.15;;;8.30;99.90;;;;;;5032670;28;20233;-89
2023/01/03 08:13:50;;;;;;;4.10;3.78;;;8.40;99.90;;;;;;5033048;28;20198;-89
2023/01/03 08:16:19;;;;;;;4.40;4.00;;;8.50;99.90;;;;;;5033824;28;20230;-88
2023/01/03 08:18:48;;;;;;;5.90;4.32;;;8.50;99.90;;;;;;5032812;28;20210;-89
2023/01/03 08:21:16;;;;;;;4.68;4.28;;;8.60;99.90;;;;;;5028001;28;20213;-89
2023/01/03 08:23:44;;;;;;;5.00;4.50;;;8.60;99.90;;;;;;5024475;28;20210;-89
2023/01/03 08:26:14;;;;;;;5.65;4.65;;;8.70;99.90;;;;;;5022846;28;20230;-89
2023/01/03 08:28:44;;;;;;;4.65;3.67;;;8.80;99.90;;;;;;5019858;28;20187;-88
2023/01/03 08:31:16;;;;;;;4.30;3.90;;;8.80;99.90;;;;;;5024377;28;20205;-89
2023/01/03 08:33:50;;;;;;;5.00;3.88;;;8.80;99.90;;;;;;5018702;28;20201;-88
2023/01/03 08:36:19;;;;;;;4.22;3.83;;;8.90;99.90;;;;;;5026756;28;20238;-88
2023/01/03 08:38:50;;;;;;;4.47;4.07;;;8.90;99.90;;;;;;5013046;28;20218;-88
2023/01/03 08:41:23;;;;;;;4.78;4.18;;;8.90;99.90;;;;;;5022598;28;20210;-87
2023/01/03 08:43:51;;;;;;;6.30;4.90;;;8.90;99.90;;;;;;5032717;28;20206;-87
2023/01/03 08:46:22;;;;;;;5.78;4.40;;;8.90;99.90;;;;;;5032888;28;20230;-87
2023/01/03 08:48:50;;;;;;;4.22;3.92;;;8.90;99.90;;;;;;5028850;28;20203;-87
2023/01/03 08:51:18;;;;;;;6.13;4.53;;;9.00;99.90;;;;;;5012789;28;20211;-88
2023/01/03 08:53:47;;;;;;;6.15;4.45;;;8.90;99.90;;;;;;5024866;28;20202;-87
2023/01/03 08:56:15;;;;;;;4.10;3.70;;;9.00;99.90;;;;;;5032457;28;20229;-88
2023/01/03 08:58:43;;;;;;;4.90;4.38;;;9.00;99.90;;;;;;5032666;28;20206;-88
2023/01/03 09:01:12;;;;;;;5.20;4.03;;;9.00;99.90;;;;;;5032666;28;20206;-88
2023/01/03 09:03:42;;;;;;;4.28;3.88;;;9.00;99.90;;;;;;5032936;28;20206;-88
2023/01/03 09:06:10;;;;;;;4.32;3.90;;;9.00;99.90;;;;;;5032059;28;20230;-88
2023/01/03 09:08:39;;;;;;;7.50;4.65;;;9.00;99.90;;;;;;5032768;28;20211;-88
2023/01/03 09:11:08;;;;;;;5.00;4.07;;;9.00;99.90;;;;;;5026415;28;20210;-87
2023/01/03 09:13:37;;;;;;;4.40;4.03;;;9.10;99.90;;;;;;5028976;28;20210;-88
2023/01/03 09:16:07;;;;;;;7.25;4.35;;;9.10;99.90;;;;;;5028009;28;20226;-88
2023/01/03 09:18:36;;;;;;;4.88;4.07;;;9.20;99.90;;;;;;5032047;28;20198;-88
2023/01/03 09:21:06;;;;;;;6.07;3.90;;;9.20;99.90;;;;;;5032224;28;20205;-88
2023/01/03 09:23:36;;;;;;;4.60;4.00;;;9.40;99.90;;;;;;5026420;28;20194;-89
2023/01/03 09:26:05;;;;;;;4.18;3.78;;;9.50;99.90;;;;;;5017805;28;20229;-88
2023/01/03 09:28:34;;;;;;;4.18;3.78;;;9.60;99.90;;;;;;5027263;28;20257;-90
2023/01/03 09:31:02;;;;;;;6.80;4.47;;;9.70;99.90;;;;;;5032545;28;20211;-88
2023/01/03 09:33:31;;;;;;;7.78;4.93;;;9.80;99.90;;;;;;5031542;28;20206;-88
2023/01/03 09:35:59;;;;;;;8.43;5.25;;;9.90;99.90;;;;;;5032098;28;20226;-88
2023/01/03 09:38:29;;;;;;;3.85;3.47;;;9.90;99.90;;;;;;5031581;28;20206;-88
2023/01/03 09:41:00;;;;;;;4.03;3.63;;;10.00;99.90;;;;;;5031500;28;20206;-88
2023/01/03 09:43:39;;;;;;;6.45;3.83;;;10.10;99.90;;;;;;5031704;28;20309;-88
2023/01/03 09:46:15;;;;;;;8.23;3.97;;;10.20;99.90;;;;;;5031857;28;20284;-90
2023/01/03 09:48:45;;;;;;;4.65;3.83;;;10.20;99.90;;;;;;5031795;28;20202;-89
2023/01/03 10:05:53;;;;;;;3.30;2.97;;;10.70;99.90;;;;;;5026803;28;20230;-90
2023/01/03 10:08:35;;;;;;;5.20;3.55;;;10.80;99.90;;;;;;5026169;28;20202;-90
2023/01/03 10:11:08;;;;;;;5.57;3.40;;;10.90;99.90;;;;;;5016195;28;20221;-88
2023/01/03 10:13:56;;;;;;;5.38;3.38;;;10.90;99.90;;;;;;5031867;28;20226;-88
2023/01/03 10:16:33;;;;;;;3.13;2.90;;;10.90;99.90;;;;;;5035319;28;20222;-88
2023/01/03 10:19:20;;;;;;;3.92;3.25;;;10.90;99.90;;;;;;5035610;28;20202;-89
2023/01/03 10:21:54;;;;;;;4.65;3.75;;;10.90;99.90;;;;;;5035724;28;20289;-88
2023/01/03 10:24:25;;;;;;;5.30;3.33;;;10.90;99.90;;;;;;5035656;28;20228;-88
2023/01/03 10:27:00;;;;;;;3.80;3.13;;;10.90;99.90;;;;;;5035090;28;20226;-88
2023/01/03 10:29:28;;;;;;;3.30;3.00;;;11.00;99.90;;;;;;5036044;28;20226;-88
2023/01/03 10:32:13;;;;;;;3.35;3.05;;;11.00;99.90;;;;;;5035467;28;20202;-88
2023/01/03 10:34:41;;;;;;;3.22;3.00;;;11.00;99.90;;;;;;5035409;28;20210;-89
2023/01/03 10:37:17;;;;;;;3.88;3.35;;;11.00;99.90;;;;;;5035308;28;20210;-88
2023/01/03 10:39:45;;;;;;;4.72;3.42;;;11.00;99.90;;;;;;5035288;28;20209;-88
2023/01/03 10:42:18;;;;;;;2.50;2.30;;;11.00;99.90;;;;;;5035526;28;20202;-88
2023/01/03 10:45:01;;;;;;;3.63;3.30;;;11.10;99.90;;;;;;5035410;28;20216;-88
2023/01/03 10:47:29;;;;;;;3.38;2.53;;;11.20;99.90;;;;;;5035518;28;20305;-88
2023/01/03 10:49:59;;;;;;;6.60;2.55;;;11.20;99.90;;;;;;5034976;28;20202;-88
2023/01/03 10:52:33;;;;;;;2.53;2.28;;;11.30;99.90;;;;;;5035437;28;20221;-89
2023/01/03 10:55:04;;;;;;;3.40;3.08;;;11.40;99.90;;;;;;5026914;28;20219;-89
2023/01/03 10:57:42;;;;;;;3.08;2.78;;;11.50;99.90;;;;;;5021793;28;20226;-89
2023/01/03 11:00:30;;;;;;;3.53;3.22;;;11.50;99.90;;;;;;5033023;28;20205;-89
2023/01/03 11:03:10;;;;;;;3.78;2.53;;;11.70;99.90;;;;;;5023210;28;20206;-88
2023/01/03 11:05:40;;;;;;;3.33;2.72;;;11.90;99.90;;;;;;5027118;28;20222;-89
2023/01/03 11:08:17;;;;;;;5.55;2.35;;;12.00;99.90;;;;;;5034780;28;20213;-88
2023/01/03 11:10:57;;;;;;;3.63;2.40;;;11.90;99.90;;;;;;5035089;28;20301;-88
2023/01/03 11:13:32;;;;;;;3.58;2.45;;;11.90;99.90;;;;;;5034510;28;20224;-88
2023/01/03 11:16:02;;;;;;;2.53;2.33;;;11.80;99.90;;;;;;5034630;28;20301;-89
2023/01/03 11:18:31;;;;;;;2.63;2.42;;;11.70;99.90;;;;;;5033915;28;20205;-88
2023/01/03 11:21:08;;;;;;;3.85;2.20;;;11.70;99.90;;;;;;5034624;28;20198;-88
2023/01/03 11:23:57;;;;;;;3.90;3.45;;;11.60;99.90;;;;;;5035022;28;20248;-88
2023/01/03 11:26:41;;;;;;;2.72;2.47;;;11.60;99.90;;;;;;5026768;28;20235;-88
2023/01/03 11:29:33;;;;;;;2.38;2.17;;;11.60;99.90;;;;;;5031790;28;20208;-89
2023/01/03 11:32:12;;;;;;;2.70;2.38;;;11.50;99.90;;;;;;5034175;28;20213;-89
2023/01/03 11:35:02;;;;;;;3.80;3.03;;;11.50;99.90;;;;;;5034243;28;20203;-89
2023/01/03 11:38:01;;;;;;;1.83;1.73;;;11.50;99.90;;;;;;5033916;28;20213;-92
2023/01/03 11:40:41;;;;;;;3.85;2.13;;;11.50;99.90;;;;;;5034491;28;20214;-93
2023/01/03 11:43:24;;;;;;;3.30;2.58;;;11.40;99.90;;;;;;5034211;28;20214;-88
2023/01/03 11:46:14;;;;;;;3.00;2.75;;;11.30;99.90;;;;;;5033998;28;20223;-88
2023/01/03 11:48:58;;;;;;;3.08;2.78;;;11.30;99.90;;;;;;5030871;28;20214;-88
2023/01/03 11:51:33;;;;;;;2.63;2.42;;;11.30;99.90;;;;;;5014524;28;20207;-88
2023/01/03 11:54:15;;;;;;;2.88;2.67;;;11.30;99.90;;;;;;5031506;28;20202;-88
2023/01/03 11:56:44;;;;;;;2.47;2.28;;;11.30;99.90;;;;;;5033913;28;20234;-88
2023/01/03 11:59:36;;;;;;;3.70;2.97;;;11.30;99.90;;;;;;5033817;28;20217;-88
2023/01/03 12:02:37;;;;;;;4.55;2.97;;;11.30;99.90;;;;;;5034289;28;20198;-88
2023/01/03 12:05:27;;;;;;;2.92;2.67;;;11.20;99.90;;;;;;5033121;28;20218;-88
2023/01/03 12:08:01;;;;;;;2.97;2.67;;;11.20;99.90;;;;;;5019808;28;20306;-88
2023/01/03 12:10:39;;;;;;;2.20;1.98;;;11.20;99.90;;;;;;5023586;28;20209;-89
2023/01/03 12:13:22;;;;;;;2.92;2.58;;;11.10;99.90;;;;;;5033279;28;20210;-89
2023/01/03 12:16:01;;;;;;;2.13;1.60;;;11.10;99.90;;;;;;5033391;28;20230;-90
2023/01/03 12:18:41;;;;;;;4.10;2.63;;;11.00;99.90;;;;;;5031873;28;20199;-87
2023/01/03 12:21:15;;;;;;;4.18;2.75;;;11.00;99.90;;;;;;5019561;28;20216;-87
2023/01/03 12:23:48;;;;;;;2.45;2.25;;;11.00;99.90;;;;;;5022765;28;20206;-86
2023/01/03 12:26:17;;;;;;;2.40;2.20;;;11.00;99.90;;;;;;5014584;28;20235;-87
2023/01/03 12:28:51;;;;;;;2.72;2.53;;;11.00;99.90;;;;;;5032013;28;20286;-87
2023/01/03 12:31:26;;;;;;;2.63;2.42;;;11.00;99.90;;;;;;5028538;28;20213;-88
2023/01/03 12:34:09;;;;;;;2.80;2.55;;;11.00;99.90;;;;;;5024084;28;20271;-87
2023/01/03 12:36:43;;;;;;;3.45;2.63;;;11.00;99.90;;;;;;5031798;28;20222;-87
2023/01/03 12:39:34;;;;;;;2.85;2.58;;;10.90;99.90;;;;;;5032656;28;20228;-88
2023/01/03 12:42:09;;;;;;;2.85;2.50;;;10.80;99.90;;;;;;5020493;28;20207;-87
2023/01/03 12:44:40;;;;;;;4.07;2.53;;;10.80;99.90;;;;;;5013401;28;20306;-88
2023/01/03 12:47:14;;;;;;;3.88;2.67;;;10.70;99.90;;;;;;5012983;28;20223;-88
2023/01/03 12:49:52;;;;;;;5.57;3.22;;;10.70;99.90;;;;;;5029985;28;20197;-88
2023/01/03 12:52:24;;;;;;;3.50;3.20;;;10.60;99.90;;;;;;5029729;28;20198;-88
2023/01/03 12:54:57;;;;;;;5.75;3.10;;;10.60;99.90;;;;;;5025981;28;20207;-87
2023/01/03 12:57:47;;;;;;;4.47;3.00;;;10.60;99.90;;;;;;5031005;28;20209;-87
2023/01/03 13:00:33;;;;;;;3.28;3.03;;;10.60;99.90;;;;;;5032129;28;20206;-87
2023/01/03 13:03:07;;;;;;;4.85;2.80;;;10.70;99.90;;;;;;5032890;28;20202;-87
2023/01/03 13:05:43;;;;;;;4.32;2.20;;;10.60;99.90;;;;;;5032576;28;20222;-87
2023/01/03 13:08:20;;;;;;;2.97;2.65;;;10.60;99.90;;;;;;5029034;28;20222;-87
2023/01/03 13:10:52;;;;;;;5.20;2.58;;;10.60;99.90;;;;;;5019909;28;20199;-87
2023/01/03 13:13:21;;;;;;;2.63;2.42;;;10.60;99.90;;;;;;5028749;28;20214;-87
2023/01/03 13:15:49;;;;;;;10.55;2.58;;;10.60;99.90;;;;;;5032307;28;20230;-85
2023/01/03 13:18:34;;;;;;;3.67;2.95;;;10.60;99.90;;;;;;5032289;28;20290;-89
2023/01/03 13:21:42;;;;;;;3.58;2.45;;;10.60;99.90;;;;;;5032329;28;20266;-86
2023/01/03 13:24:10;;;;;;;3.03;2.63;;;10.60;99.90;;;;;;5032596;28;20209;-87
2023/01/03 13:26:38;;;;;;;3.47;2.92;;;10.60;99.90;;;;;;5032502;28;20234;-87
2023/01/03 13:29:46;;;;;;;6.03;4.00;;;10.60;99.90;;;;;;5032383;28;20294;-87
2023/01/03 13:32:16;;;;;;;3.15;2.83;;;10.50;99.90;;;;;;5027773;28;20210;-86
2023/01/03 13:34:44;;;;;;;5.10;2.63;;;10.50;99.90;;;;;;5031778;28;20208;-87
2023/01/03 13:37:19;;;;;;;3.78;2.85;;;10.50;99.90;;;;;;5032209;28;20207;-86
2023/01/03 13:40:03;;;;;;;2.60;2.35;;;10.40;99.90;;;;;;5032086;28;20211;-86
2023/01/03 13:43:18;;;;;;;2.40;2.25;;;10.50;99.90;;;;;;5032046;28;20245;-85
2023/01/03 13:46:19;;;;;;;3.00;2.35;;;10.40;99.90;;;;;;5014404;28;20230;-86
2023/01/03 13:48:57;;;;;;;3.70;2.60;;;10.40;99.90;;;;;;5031588;28;20225;-86
2023/01/03 13:51:52;;;;;;;2.85;2.08;;;10.30;99.90;;;;;;5032350;28;20213;-86
2023/01/03 13:55:05;;;;;;;2.13;1.98;;;10.30;99.90;;;;;;5032355;28;20301;-86
2023/01/03 13:57:52;;;;;;;2.63;2.42;;;10.30;99.90;;;;;;5032006;28;20209;-87
2023/01/03 14:00:22;;;;;;;2.67;2.47;;;10.30;99.90;;;;;;5032086;28;20218;-86
2023/01/03 14:03:35;;;;;;;2.75;2.55;;;10.30;99.90;;;;;;5031736;28;20214;-76
2023/01/03 14:06:19;;;;;;;4.82;2.90;;;10.40;99.90;;;;;;5031093;28;20241;-76
2023/01/03 14:09:31;;;;;;;2.83;2.53;;;10.40;99.90;;;;;;5021396;28;20214;-86
2023/01/03 14:12:20;;;;;;;13.70;2.30;;;10.40;99.90;;;;;;5029297;28;20258;-87
2023/01/03 14:14:55;;;;;;;2.53;2.28;;;10.40;99.90;;;;;;5014827;28;20200;-88
2023/01/03 14:17:27;;;;;;;3.03;2.28;;;10.40;99.90;;;;;;5027800;28;20195;-85
2023/01/03 14:19:59;;;;;;;4.53;2.95;;;10.40;99.90;;;;;;5032196;28;20218;-86